Lonoke, Arkansas
Current Conditions -  °F | °C
As of 9:58 AM on Wednesday 22 Oct 2014 (Local Time) from KLRF Reporting Station
Clear Clear  
Wind Chill: 59°   Ceiling: Unl
Heat Index: 59°   Visibility: 10mi
Dew Point: 49°   Wind: 8mph
Humidity: 68%   Direction: 70°ENE
Pressure: 30.25"   Gusts: NA
Location:  34.78°N, 91.9°W
Report Text: KLRF 221458Z AUTO 07007KT 10SM CLR 15/09 A3025 RMK AO2 VIS 1 RWY07 SLP246 T01510092 52020
Loading
Personal Weather Stations






























Interactive Weather Map
Tropical Storm Tracking
New forecast layout! Learn more

10-Day Weather Forecast

Advertisements
Track Severe Weather on mobile